sensor_id;sensor_type;location;lat;lon;timestamp;pressure;altitude;pressure_sealevel;temperature;humidity
70445;BME280;57902;49.638;11.070;2022-07-23T00:00:43;98183.16;;;22.33;53.95
70445;BME280;57902;49.638;11.070;2022-07-23T00:03:10;98182.06;;;22.24;54.14
70445;BME280;57902;49.638;11.070;2022-07-23T00:05:36;98187.66;;;22.19;54.54
70445;BME280;57902;49.638;11.070;2022-07-23T00:08:05;98184.59;;;22.14;55.37
70445;BME280;57902;49.638;11.070;2022-07-23T00:10:38;98197.84;;;22.13;55.24
70445;BME280;57902;49.638;11.070;2022-07-23T00:13:05;98203.91;;;22.13;55.51
70445;BME280;57902;49.638;11.070;2022-07-23T00:15:31;98209.41;;;22.22;54.67
70445;BME280;57902;49.638;11.070;2022-07-23T00:17:58;98215.38;;;22.24;54.39
70445;BME280;57902;49.638;11.070;2022-07-23T00:20:27;98213.56;;;22.24;54.28
70445;BME280;57902;49.638;11.070;2022-07-23T00:22:55;98214.53;;;22.23;54.88
70445;BME280;57902;49.638;11.070;2022-07-23T00:25:22;98212.72;;;22.24;55.04
70445;BME280;57902;49.638;11.070;2022-07-23T00:27:54;98208.69;;;22.19;55.69
70445;BME280;57902;49.638;11.070;2022-07-23T00:30:21;98197.59;;;22.16;55.92
70445;BME280;57902;49.638;11.070;2022-07-23T00:32:53;98193.53;;;22.12;55.55
70445;BME280;57902;49.638;11.070;2022-07-23T00:35:23;98186.03;;;22.07;55.81
70445;BME280;57902;49.638;11.070;2022-07-23T00:37:50;98183.97;;;22.11;56.41
70445;BME280;57902;49.638;11.070;2022-07-23T00:40:17;98177.41;;;22.05;55.96
70445;BME280;57902;49.638;11.070;2022-07-23T00:42:44;98174.09;;;22.03;56.19
70445;BME280;57902;49.638;11.070;2022-07-23T00:45:10;98173.72;;;21.96;56.87
70445;BME280;57902;49.638;11.070;2022-07-23T00:47:37;98170.75;;;21.90;57.29
70445;BME280;57902;49.638;11.070;2022-07-23T00:50:06;98170.88;;;21.88;57.39
70445;BME280;57902;49.638;11.070;2022-07-23T00:52:34;98169.09;;;21.89;56.97
70445;BME280;57902;49.638;11.070;2022-07-23T00:55:01;98171.50;;;21.80;57.42
70445;BME280;57902;49.638;11.070;2022-07-23T00:57:28;98160.63;;;21.74;57.47
70445;BME280;57902;49.638;11.070;2022-07-23T00:59:55;98157.28;;;21.72;57.64
70445;BME280;57902;49.638;11.070;2022-07-23T01:02:22;98158.59;;;21.66;57.45
70445;BME280;57902;49.638;11.070;2022-07-23T01:04:48;98158.59;;;21.66;58.34
70445;BME280;57902;49.638;11.070;2022-07-23T01:07:15;98140.47;;;21.63;57.79
70445;BME280;57902;49.638;11.070;2022-07-23T01:09:43;98142.13;;;21.53;58.34
70445;BME280;57902;49.638;11.070;2022-07-23T01:12:10;98140.09;;;21.56;57.63
70445;BME280;57902;49.638;11.070;2022-07-23T01:14:37;98136.66;;;21.56;58.09
70445;BME280;57902;49.638;11.070;2022-07-23T01:17:04;98136.38;;;21.47;58.62
70445;BME280;57902;49.638;11.070;2022-07-23T01:19:30;98137.56;;;21.43;58.92
70445;BME280;57902;49.638;11.070;2022-07-23T01:22:01;98146.63;;;21.39;59.28
70445;BME280;57902;49.638;11.070;2022-07-23T01:24:28;98149.00;;;21.42;58.94
70445;BME280;57902;49.638;11.070;2022-07-23T01:26:55;98149.13;;;21.41;59.60
70445;BME280;57902;49.638;11.070;2022-07-23T01:29:22;98157.31;;;21.36;60.08
70445;BME280;57902;49.638;11.070;2022-07-23T01:31:48;98160.69;;;21.38;59.70
70445;BME280;57902;49.638;11.070;2022-07-23T01:34:15;98156.25;;;21.39;59.82
70445;BME280;57902;49.638;11.070;2022-07-23T01:36:41;98145.78;;;21.39;60.08
70445;BME280;57902;49.638;11.070;2022-07-23T01:39:08;98150.06;;;21.40;59.98
70445;BME280;57902;49.638;11.070;2022-07-23T01:41:34;98149.44;;;21.36;60.21
70445;BME280;57902;49.638;11.070;2022-07-23T01:44:02;98148.88;;;21.32;59.71
70445;BME280;57902;49.638;11.070;2022-07-23T01:46:28;98153.41;;;21.30;60.10
70445;BME280;57902;49.638;11.070;2022-07-23T01:48:55;98158.84;;;21.27;60.39
70445;BME280;57902;49.638;11.070;2022-07-23T01:51:22;98157.19;;;21.26;60.79
70445;BME280;57902;49.638;11.070;2022-07-23T01:53:48;98155.88;;;21.21;60.41
70445;BME280;57902;49.638;11.070;2022-07-23T01:56:15;98161.81;;;21.23;60.31
70445;BME280;57902;49.638;11.070;2022-07-23T01:58:41;98165.31;;;21.23;60.09
70445;BME280;57902;49.638;11.070;2022-07-23T02:01:08;98165.19;;;21.25;60.39
70445;BME280;57902;49.638;11.070;2022-07-23T02:03:34;98160.66;;;21.27;59.88
70445;BME280;57902;49.638;11.070;2022-07-23T02:06:10;98166.72;;;21.27;60.11
70445;BME280;57902;49.638;11.070;2022-07-23T02:08:52;98175.78;;;21.35;59.49
70445;BME280;57902;49.638;11.070;2022-07-23T02:11:38;98185.47;;;21.34;59.82
70445;BME280;57902;49.638;11.070;2022-07-23T02:14:49;98202.41;;;21.41;59.63
70445;BME280;57902;49.638;11.070;2022-07-23T02:17:15;98200.50;;;21.43;59.44
70445;BME280;57902;49.638;11.070;2022-07-23T02:19:42;98193.22;;;21.36;60.26
70445;BME280;57902;49.638;11.070;2022-07-23T02:22:08;98183.78;;;21.33;60.49
70445;BME280;57902;49.638;11.070;2022-07-23T02:24:35;98184.38;;;21.25;62.02
70445;BME280;57902;49.638;11.070;2022-07-23T02:27:01;98189.13;;;21.20;62.53
70445;BME280;57902;49.638;11.070;2022-07-23T02:29:28;98184.09;;;21.17;63.50
70445;BME280;57902;49.638;11.070;2022-07-23T02:31:54;98186.81;;;21.15;63.90
70445;BME280;57902;49.638;11.070;2022-07-23T02:34:21;98172.41;;;21.10;63.62
70445;BME280;57902;49.638;11.070;2022-07-23T02:36:47;98168.81;;;21.11;62.58
70445;BME280;57902;49.638;11.070;2022-07-23T02:39:13;98163.81;;;21.08;62.48
70445;BME280;57902;49.638;11.070;2022-07-23T02:41:40;98167.06;;;21.11;61.65
70445;BME280;57902;49.638;11.070;2022-07-23T02:44:07;98154.91;;;21.10;61.63
70445;BME280;57902;49.638;11.070;2022-07-23T02:46:33;98153.69;;;21.03;62.27
70445;BME280;57902;49.638;11.070;2022-07-23T02:49:00;98149.63;;;20.99;62.62
70445;BME280;57902;49.638;11.070;2022-07-23T02:51:27;98149.63;;;20.99;62.78
70445;BME280;57902;49.638;11.070;2022-07-23T02:53:53;98147.41;;;20.82;64.03
70445;BME280;57902;49.638;11.070;2022-07-23T02:56:19;98138.84;;;20.79;64.28
70445;BME280;57902;49.638;11.070;2022-07-23T02:58:46;98140.00;;;20.75;64.20
70445;BME280;57902;49.638;11.070;2022-07-23T03:01:13;98133.44;;;20.70;64.47
70445;BME280;57902;49.638;11.070;2022-07-23T03:03:39;98135.59;;;20.52;66.07
70445;BME280;57902;49.638;11.070;2022-07-23T03:06:06;98126.91;;;20.51;65.59
70445;BME280;57902;49.638;11.070;2022-07-23T03:08:32;98122.50;;;20.52;65.03
70445;BME280;57902;49.638;11.070;2022-07-23T03:10:59;98124.50;;;20.48;65.67
70445;BME280;57902;49.638;11.070;2022-07-23T03:13:25;98128.19;;;20.45;65.68
70445;BME280;57902;49.638;11.070;2022-07-23T03:15:52;98123.91;;;20.44;65.10
70445;BME280;57902;49.638;11.070;2022-07-23T03:18:19;98131.63;;;20.46;64.98
70445;BME280;57902;49.638;11.070;2022-07-23T03:20:45;98134.25;;;20.46;65.47
70445;BME280;57902;49.638;11.070;2022-07-23T03:23:12;98131.16;;;20.41;65.93
70445;BME280;57902;49.638;11.070;2022-07-23T03:25:38;98136.88;;;20.46;65.52
70445;BME280;57902;49.638;11.070;2022-07-23T03:28:05;98128.69;;;20.51;65.41
70445;BME280;57902;49.638;11.070;2022-07-23T03:30:31;98135.47;;;20.53;65.53
70445;BME280;57902;49.638;11.070;2022-07-23T03:32:58;98141.19;;;20.58;65.50
70445;BME280;57902;49.638;11.070;2022-07-23T03:35:24;98136.81;;;20.59;65.54
70445;BME280;57902;49.638;11.070;2022-07-23T03:37:51;98133.34;;;20.58;65.51
70445;BME280;57902;49.638;11.070;2022-07-23T03:40:17;98130.72;;;20.58;65.19
70445;BME280;57902;49.638;11.070;2022-07-23T03:42:44;98139.56;;;20.57;65.15
70445;BME280;57902;49.638;11.070;2022-07-23T03:45:12;98138.69;;;20.57;65.70
70445;BME280;57902;49.638;11.070;2022-07-23T03:47:38;98147.63;;;20.54;65.41
70445;BME280;57902;49.638;11.070;2022-07-23T03:50:06;98140.84;;;20.52;65.57
70445;BME280;57902;49.638;11.070;2022-07-23T03:52:32;98150.69;;;20.48;65.77
70445;BME280;57902;49.638;11.070;2022-07-23T03:54:59;98148.91;;;20.49;65.57
70445;BME280;57902;49.638;11.070;2022-07-23T03:57:25;98145.56;;;20.46;65.49
70445;BME280;57902;49.638;11.070;2022-07-23T03:59:52;98137.09;;;20.43;65.84
70445;BME280;57902;49.638;11.070;2022-07-23T04:02:18;98151.47;;;20.37;66.41
70445;BME280;57902;49.638;11.070;2022-07-23T04:04:45;98154.41;;;20.33;66.47
70445;BME280;57902;49.638;11.070;2022-07-23T04:07:13;98157.63;;;20.36;65.99
70445;BME280;57902;49.638;11.070;2022-07-23T04:09:39;98154.72;;;20.41;65.43
70445;BME280;57902;49.638;11.070;2022-07-23T04:12:11;98164.97;;;20.44;65.38
70445;BME280;57902;49.638;11.070;2022-07-23T04:14:38;98160.31;;;20.48;65.05
70445;BME280;57902;49.638;11.070;2022-07-23T04:17:05;98166.78;;;20.55;64.56
70445;BME280;57902;49.638;11.070;2022-07-23T04:19:31;98162.50;;;20.54;64.65
70445;BME280;57902;49.638;11.070;2022-07-23T04:21:58;98161.22;;;20.59;64.52
70445;BME280;57902;49.638;11.070;2022-07-23T04:24:24;98172.13;;;20.66;64.34
70445;BME280;57902;49.638;11.070;2022-07-23T04:26:52;98175.00;;;20.74;64.02
70445;BME280;57902;49.638;11.070;2022-07-23T04:29:19;98178.25;;;20.78;64.40
70445;BME280;57902;49.638;11.070;2022-07-23T04:31:45;98183.84;;;20.85;64.02
70445;BME280;57902;49.638;11.070;2022-07-23T04:34:12;98180.47;;;20.95;63.89
70445;BME280;57902;49.638;11.070;2022-07-23T04:36:39;98189.19;;;21.07;63.45
70445;BME280;57902;49.638;11.070;2022-07-23T04:39:05;98189.50;;;21.27;63.23
70445;BME280;57902;49.638;11.070;2022-07-23T04:41:33;98190.06;;;21.55;62.80
70445;BME280;57902;49.638;11.070;2022-07-23T04:44:01;98197.94;;;21.89;61.59
70445;BME280;57902;49.638;11.070;2022-07-23T04:46:28;98195.06;;;22.26;59.78
70445;BME280;57902;49.638;11.070;2022-07-23T04:48:54;98195.38;;;22.55;59.05
70445;BME280;57902;49.638;11.070;2022-07-23T04:51:21;98190.84;;;22.68;58.18
70445;BME280;57902;49.638;11.070;2022-07-23T04:53:48;98195.03;;;22.60;58.36
70445;BME280;57902;49.638;11.070;2022-07-23T04:56:14;98191.41;;;22.72;58.39
70445;BME280;57902;49.638;11.070;2022-07-23T04:58:41;98188.13;;;22.91;58.01
70445;BME280;57902;49.638;11.070;2022-07-23T05:01:10;98185.03;;;23.18;56.99
70445;BME280;57902;49.638;11.070;2022-07-23T05:03:42;98184.56;;;23.34;56.02
70445;BME280;57902;49.638;11.070;2022-07-23T05:06:09;98180.69;;;23.29;55.97
70445;BME280;57902;49.638;11.070;2022-07-23T05:08:35;98176.13;;;23.31;56.40
70445;BME280;57902;49.638;11.070;2022-07-23T05:11:02;98182.94;;;23.33;56.05
70445;BME280;57902;49.638;11.070;2022-07-23T05:13:31;98181.56;;;23.39;56.09
70445;BME280;57902;49.638;11.070;2022-07-23T05:16:20;98195.03;;;23.24;56.14
70445;BME280;57902;49.638;11.070;2022-07-23T05:19:03;98195.31;;;23.21;56.43
70445;BME280;57902;49.638;11.070;2022-07-23T05:21:31;98197.47;;;23.58;57.60
70445;BME280;57902;49.638;11.070;2022-07-23T05:24:01;98208.56;;;24.14;55.08
70445;BME280;57902;49.638;11.070;2022-07-23T05:26:27;98221.34;;;24.79;52.51
70445;BME280;57902;49.638;11.070;2022-07-23T05:29:01;98228.47;;;25.37;52.07
70445;BME280;57902;49.638;11.070;2022-07-23T05:31:42;98222.63;;;26.00;50.05
70445;BME280;57902;49.638;11.070;2022-07-23T05:34:15;98230.94;;;26.61;48.50
70445;BME280;57902;49.638;11.070;2022-07-23T05:36:43;98233.88;;;27.04;46.13
70445;BME280;57902;49.638;11.070;2022-07-23T05:39:10;98227.97;;;27.28;45.49
70445;BME280;57902;49.638;11.070;2022-07-23T05:41:36;98224.69;;;27.52;44.31
70445;BME280;57902;49.638;11.070;2022-07-23T05:44:09;98222.28;;;27.67;44.17
70445;BME280;57902;49.638;11.070;2022-07-23T05:46:46;98223.84;;;28.04;43.99
70445;BME280;57902;49.638;11.070;2022-07-23T05:49:13;98226.94;;;28.26;43.06
70445;BME280;57902;49.638;11.070;2022-07-23T05:51:40;98222.94;;;28.65;42.41
70445;BME280;57902;49.638;11.070;2022-07-23T05:54:11;98225.47;;;28.83;41.10
70445;BME280;57902;49.638;11.070;2022-07-23T05:57:04;98231.06;;;28.71;41.52
70445;BME280;57902;49.638;11.070;2022-07-23T05:59:31;98233.66;;;28.55;40.52
70445;BME280;57902;49.638;11.070;2022-07-23T06:01:58;98244.13;;;28.22;41.69
70445;BME280;57902;49.638;11.070;2022-07-23T06:04:24;98246.03;;;27.51;43.02
70445;BME280;57902;49.638;11.070;2022-07-23T06:06:54;98254.88;;;27.05;45.13
70445;BME280;57902;49.638;11.070;2022-07-23T06:09:27;98257.97;;;26.83;46.37
70445;BME280;57902;49.638;11.070;2022-07-23T06:11:53;98267.59;;;27.02;45.37
70445;BME280;57902;49.638;11.070;2022-07-23T06:14:20;98270.09;;;27.03;46.89
70445;BME280;57902;49.638;11.070;2022-07-23T06:16:47;98271.22;;;27.01;45.92
70445;BME280;57902;49.638;11.070;2022-07-23T06:19:13;98269.16;;;26.77;45.38
70445;BME280;57902;49.638;11.070;2022-07-23T06:21:40;98270.75;;;26.60;46.56
70445;BME280;57902;49.638;11.070;2022-07-23T06:24:12;98272.66;;;26.40;46.68
70445;BME280;57902;49.638;11.070;2022-07-23T06:26:39;98275.16;;;26.41;46.92
70445;BME280;57902;49.638;11.070;2022-07-23T06:29:05;98278.13;;;26.84;46.78
70445;BME280;57902;49.638;11.070;2022-07-23T06:31:32;98274.84;;;27.54;46.11
70445;BME280;57902;49.638;11.070;2022-07-23T06:34:01;98281.34;;;28.38;43.94
70445;BME280;57902;49.638;11.070;2022-07-23T06:36:28;98288.19;;;29.17;41.27
70445;BME280;57902;49.638;11.070;2022-07-23T06:38:55;98278.94;;;29.87;40.93
70445;BME280;57902;49.638;11.070;2022-07-23T06:41:23;98277.09;;;30.51;38.85
70445;BME280;57902;49.638;11.070;2022-07-23T06:43:50;98280.53;;;31.00;37.12
70445;BME280;57902;49.638;11.070;2022-07-23T06:46:16;98277.78;;;31.54;36.48
70445;BME280;57902;49.638;11.070;2022-07-23T06:48:43;98282.81;;;31.87;34.90
70445;BME280;57902;49.638;11.070;2022-07-23T06:51:10;98296.34;;;32.01;36.63
70445;BME280;57902;49.638;11.070;2022-07-23T06:53:36;98295.06;;;32.56;34.23
70445;BME280;57902;49.638;11.070;2022-07-23T06:56:03;98301.22;;;32.42;33.57
70445;BME280;57902;49.638;11.070;2022-07-23T06:58:29;98312.63;;;32.06;33.64
70445;BME280;57902;49.638;11.070;2022-07-23T07:00:56;98320.00;;;31.66;34.98
70445;BME280;57902;49.638;11.070;2022-07-23T07:03:23;98313.91;;;30.71;37.84
70445;BME280;57902;49.638;11.070;2022-07-23T07:05:49;98316.09;;;30.11;38.46
70445;BME280;57902;49.638;11.070;2022-07-23T07:08:16;98320.63;;;29.53;40.12
70445;BME280;57902;49.638;11.070;2022-07-23T07:10:42;98319.28;;;29.49;39.33
70445;BME280;57902;49.638;11.070;2022-07-23T07:13:09;98324.63;;;29.57;38.58
70445;BME280;57902;49.638;11.070;2022-07-23T07:15:36;98328.72;;;29.27;39.63
70445;BME280;57902;49.638;11.070;2022-07-23T07:18:02;98324.44;;;29.50;38.86
70445;BME280;57902;49.638;11.070;2022-07-23T07:20:29;98325.94;;;29.53;38.98
70445;BME280;57902;49.638;11.070;2022-07-23T07:22:55;98332.41;;;30.00;38.43
70445;BME280;57902;49.638;11.070;2022-07-23T07:25:22;98331.34;;;30.26;37.87
70445;BME280;57902;49.638;11.070;2022-07-23T07:27:48;98343.13;;;30.31;37.79
70445;BME280;57902;49.638;11.070;2022-07-23T07:30:15;98343.81;;;30.33;37.52
70445;BME280;57902;49.638;11.070;2022-07-23T07:32:42;98350.09;;;30.49;37.20
70445;BME280;57902;49.638;11.070;2022-07-23T07:35:24;98349.47;;;30.78;36.61
70445;BME280;57902;49.638;11.070;2022-07-23T07:37:51;98345.66;;;30.81;36.59
70445;BME280;57902;49.638;11.070;2022-07-23T07:40:18;98357.00;;;30.66;37.28
70445;BME280;57902;49.638;11.070;2022-07-23T07:42:50;98369.56;;;30.33;36.56
70445;BME280;57902;49.638;11.070;2022-07-23T07:45:17;98373.09;;;29.92;37.46
70445;BME280;57902;49.638;11.070;2022-07-23T07:47:46;98370.75;;;29.40;38.13
70445;BME280;57902;49.638;11.070;2022-07-23T07:50:12;98381.63;;;28.77;39.33
70445;BME280;57902;49.638;11.070;2022-07-23T07:52:39;98391.63;;;28.05;41.24
70445;BME280;57902;49.638;11.070;2022-07-23T07:55:08;98398.53;;;27.44;43.29
70445;BME280;57902;49.638;11.070;2022-07-23T07:57:35;98401.78;;;26.72;50.08
70445;BME280;57902;49.638;11.070;2022-07-23T08:00:03;98411.38;;;25.96;54.84
70445;BME280;57902;49.638;11.070;2022-07-23T08:02:42;98394.34;;;25.11;58.36
70445;BME280;57902;49.638;11.070;2022-07-23T08:05:09;98394.25;;;24.51;60.67
70445;BME280;57902;49.638;11.070;2022-07-23T08:07:36;98409.28;;;24.39;62.25
70445;BME280;57902;49.638;11.070;2022-07-23T08:10:04;98412.19;;;24.15;63.60
70445;BME280;57902;49.638;11.070;2022-07-23T08:12:45;98407.03;;;24.13;64.08
70445;BME280;57902;49.638;11.070;2022-07-23T08:15:16;98418.28;;;23.94;64.91
70445;BME280;57902;49.638;11.070;2022-07-23T08:17:44;98419.66;;;23.77;66.46
70445;BME280;57902;49.638;11.070;2022-07-23T08:20:13;98432.09;;;23.64;64.98
70445;BME280;57902;49.638;11.070;2022-07-23T08:22:46;98425.59;;;23.47;66.55
70445;BME280;57902;49.638;11.070;2022-07-23T08:25:14;98426.25;;;23.28;68.72
70445;BME280;57902;49.638;11.070;2022-07-23T08:27:41;98423.72;;;23.03;67.34
70445;BME280;57902;49.638;11.070;2022-07-23T08:30:08;98430.78;;;23.03;67.66
70445;BME280;57902;49.638;11.070;2022-07-23T08:32:48;98419.31;;;22.93;68.70
70445;BME280;57902;49.638;11.070;2022-07-23T08:35:16;98413.22;;;22.69;70.75
70445;BME280;57902;49.638;11.070;2022-07-23T08:37:42;98408.31;;;22.65;68.51
70445;BME280;57902;49.638;11.070;2022-07-23T08:40:10;98400.66;;;22.50;71.06
70445;BME280;57902;49.638;11.070;2022-07-23T08:42:40;98390.88;;;22.41;71.01
70445;BME280;57902;49.638;11.070;2022-07-23T08:45:07;98381.78;;;22.34;71.35
70445;BME280;57902;49.638;11.070;2022-07-23T08:47:37;98385.09;;;22.25;70.06
70445;BME280;57902;49.638;11.070;2022-07-23T08:50:04;98387.97;;;22.33;70.51
70445;BME280;57902;49.638;11.070;2022-07-23T08:52:32;98393.03;;;22.47;70.36
70445;BME280;57902;49.638;11.070;2022-07-23T08:54:59;98404.63;;;22.67;70.72
70445;BME280;57902;49.638;11.070;2022-07-23T08:57:26;98419.31;;;22.81;70.52
70445;BME280;57902;49.638;11.070;2022-07-23T08:59:52;98422.66;;;22.95;70.76
70445;BME280;57902;49.638;11.070;2022-07-23T09:02:19;98417.25;;;23.07;72.16
70445;BME280;57902;49.638;11.070;2022-07-23T09:04:45;98418.47;;;23.26;70.33
70445;BME280;57902;49.638;11.070;2022-07-23T09:07:12;98429.66;;;23.51;69.33
70445;BME280;57902;49.638;11.070;2022-07-23T09:09:39;98439.03;;;23.76;69.45
70445;BME280;57902;49.638;11.070;2022-07-23T09:12:08;98450.69;;;23.94;68.95
70445;BME280;57902;49.638;11.070;2022-07-23T09:14:45;98462.22;;;24.15;65.63
70445;BME280;57902;49.638;11.070;2022-07-23T09:17:17;98457.03;;;24.45;66.39
70445;BME280;57902;49.638;11.070;2022-07-23T09:19:45;98465.78;;;24.98;63.08
70445;BME280;57902;49.638;11.070;2022-07-23T09:22:24;98465.81;;;25.39;59.72
70445;BME280;57902;49.638;11.070;2022-07-23T09:25:04;98470.16;;;25.69;61.18
70445;BME280;57902;49.638;11.070;2022-07-23T09:27:55;98465.88;;;25.88;60.52
70445;BME280;57902;49.638;11.070;2022-07-23T09:30:24;98467.44;;;26.00;59.00
70445;BME280;57902;49.638;11.070;2022-07-23T09:33:09;98472.59;;;26.11;57.97
70445;BME280;57902;49.638;11.070;2022-07-23T09:38:25;98469.38;;;27.22;57.55
70445;BME280;57902;49.638;11.070;2022-07-23T09:41:09;98469.34;;;27.77;54.00
70445;BME280;57902;49.638;11.070;2022-07-23T09:43:36;98475.00;;;27.65;50.61
70445;BME280;57902;49.638;11.070;2022-07-23T09:46:41;98469.88;;;27.63;51.27
70445;BME280;57902;49.638;11.070;2022-07-23T09:49:15;98468.91;;;27.36;52.11
70445;BME280;57902;49.638;11.070;2022-07-23T09:51:55;98458.53;;;26.87;53.43
70445;BME280;57902;49.638;11.070;2022-07-23T09:54:35;98471.81;;;26.58;54.80
70445;BME280;57902;49.638;11.070;2022-07-23T09:57:10;98464.75;;;26.49;54.20
70445;BME280;57902;49.638;11.070;2022-07-23T09:59:43;98468.81;;;26.33;53.56
70445;BME280;57902;49.638;11.070;2022-07-23T10:02:11;98460.34;;;26.20;55.39
70445;BME280;57902;49.638;11.070;2022-07-23T10:04:39;98462.13;;;26.29;54.95
70445;BME280;57902;49.638;11.070;2022-07-23T10:07:07;98455.44;;;26.45;56.49
70445;BME280;57902;49.638;11.070;2022-07-23T10:09:40;98462.13;;;26.49;55.07
70445;BME280;57902;49.638;11.070;2022-07-23T10:12:12;98473.66;;;26.38;55.63
70445;BME280;57902;49.638;11.070;2022-07-23T10:14:42;98470.78;;;26.22;59.23
70445;BME280;57902;49.638;11.070;2022-07-23T10:17:09;98473.00;;;26.07;59.12
70445;BME280;57902;49.638;11.070;2022-07-23T10:19:36;98469.63;;;25.65;60.46
70445;BME280;57902;49.638;11.070;2022-07-23T10:22:22;98477.63;;;25.35;60.16
70445;BME280;57902;49.638;11.070;2022-07-23T10:25:12;98466.03;;;25.26;63.27
70445;BME280;57902;49.638;11.070;2022-07-23T10:30:26;98466.59;;;24.89;61.92
70445;BME280;57902;49.638;11.070;2022-07-23T10:38:20;98462.03;;;24.49;64.14
70445;BME280;57902;49.638;11.070;2022-07-23T10:41:02;98452.28;;;24.18;64.49
70445;BME280;57902;49.638;11.070;2022-07-23T10:43:29;98454.72;;;24.10;66.61
70445;BME280;57902;49.638;11.070;2022-07-23T10:46:23;98453.53;;;24.03;67.11
70445;BME280;57902;49.638;11.070;2022-07-23T10:54:52;98424.50;;;24.35;63.54
70445;BME280;57902;49.638;11.070;2022-07-23T10:57:24;98417.00;;;24.31;63.27
70445;BME280;57902;49.638;11.070;2022-07-23T11:02:29;98430.28;;;24.50;62.25
70445;BME280;57902;49.638;11.070;2022-07-23T11:05:06;98427.13;;;24.56;62.72
70445;BME280;57902;49.638;11.070;2022-07-23T11:07:34;98424.00;;;24.62;62.20
70445;BME280;57902;49.638;11.070;2022-07-23T11:10:01;98416.97;;;24.73;62.22
70445;BME280;57902;49.638;11.070;2022-07-23T11:15:08;98432.31;;;24.89;58.92
70445;BME280;57902;49.638;11.070;2022-07-23T11:17:40;98432.47;;;24.97;59.88
70445;BME280;57902;49.638;11.070;2022-07-23T11:20:24;98433.88;;;25.01;60.56
70445;BME280;57902;49.638;11.070;2022-07-23T11:22:55;98438.06;;;25.04;59.82
70445;BME280;57902;49.638;11.070;2022-07-23T11:27:51;98445.28;;;25.11;59.19
70445;BME280;57902;49.638;11.070;2022-07-23T11:30:44;98433.31;;;24.97;58.93
70445;BME280;57902;49.638;11.070;2022-07-23T11:35:40;98432.53;;;24.76;60.39
70445;BME280;57902;49.638;11.070;2022-07-23T11:40:41;98432.75;;;24.63;60.51
70445;BME280;57902;49.638;11.070;2022-07-23T11:43:08;98425.97;;;24.70;60.83
70445;BME280;57902;49.638;11.070;2022-07-23T11:45:41;98429.09;;;24.85;59.33
70445;BME280;57902;49.638;11.070;2022-07-23T11:48:14;98421.03;;;24.77;59.87
70445;BME280;57902;49.638;11.070;2022-07-23T11:50:41;98425.50;;;24.86;60.44
70445;BME280;57902;49.638;11.070;2022-07-23T11:53:08;98421.75;;;24.89;60.08
70445;BME280;57902;49.638;11.070;2022-07-23T11:55:34;98424.41;;;24.98;60.15
70445;BME280;57902;49.638;11.070;2022-07-23T11:58:01;98421.38;;;25.03;59.84
70445;BME280;57902;49.638;11.070;2022-07-23T12:00:29;98416.28;;;25.11;59.18
70445;BME280;57902;49.638;11.070;2022-07-23T12:02:59;98417.31;;;25.30;58.40
70445;BME280;57902;49.638;11.070;2022-07-23T12:05:35;98416.44;;;25.29;59.14
70445;BME280;57902;49.638;11.070;2022-07-23T12:08:05;98410.94;;;25.32;59.54
70445;BME280;57902;49.638;11.070;2022-07-23T12:10:38;98408.19;;;25.44;58.36
70445;BME280;57902;49.638;11.070;2022-07-23T12:13:08;98407.47;;;25.52;57.41
70445;BME280;57902;49.638;11.070;2022-07-23T12:15:40;98401.38;;;25.71;57.32
70445;BME280;57902;49.638;11.070;2022-07-23T12:18:12;98402.50;;;25.88;57.32
70445;BME280;57902;49.638;11.070;2022-07-23T12:20:45;98396.97;;;26.00;56.79
70445;BME280;57902;49.638;11.070;2022-07-23T12:23:13;98399.28;;;26.13;56.20
70445;BME280;57902;49.638;11.070;2022-07-23T12:25:47;98391.91;;;26.27;55.43
70445;BME280;57902;49.638;11.070;2022-07-23T12:30:53;98389.88;;;26.48;56.25
70445;BME280;57902;49.638;11.070;2022-07-23T12:35:50;98375.53;;;26.61;55.07
70445;BME280;57902;49.638;11.070;2022-07-23T12:38:19;98386.72;;;26.45;53.78
70445;BME280;57902;49.638;11.070;2022-07-23T12:40:47;98372.41;;;26.37;53.94
70445;BME280;57902;49.638;11.070;2022-07-23T12:43:35;98378.34;;;26.49;52.66
70445;BME280;57902;49.638;11.070;2022-07-23T12:48:32;98367.97;;;26.66;51.38
70445;BME280;57902;49.638;11.070;2022-07-23T12:51:02;98370.63;;;26.66;51.93
70445;BME280;57902;49.638;11.070;2022-07-23T12:53:38;98367.16;;;26.65;52.11
70445;BME280;57902;49.638;11.070;2022-07-23T12:56:14;98371.28;;;26.78;52.42
70445;BME280;57902;49.638;11.070;2022-07-23T12:58:52;98365.97;;;26.87;51.46
70445;BME280;57902;49.638;11.070;2022-07-23T13:09:19;98359.72;;;27.52;49.92
70445;BME280;57902;49.638;11.070;2022-07-23T13:11:47;98371.06;;;27.63;48.99
70445;BME280;57902;49.638;11.070;2022-07-23T13:14:15;98369.63;;;27.68;49.62
70445;BME280;57902;49.638;11.070;2022-07-23T13:16:43;98365.06;;;27.79;50.36
70445;BME280;57902;49.638;11.070;2022-07-23T13:19:10;98369.28;;;27.89;48.77
70445;BME280;57902;49.638;11.070;2022-07-23T13:21:38;98361.63;;;28.04;48.43
70445;BME280;57902;49.638;11.070;2022-07-23T13:24:06;98363.78;;;28.01;47.67
70445;BME280;57902;49.638;11.070;2022-07-23T13:26:35;98365.34;;;28.11;47.36
70445;BME280;57902;49.638;11.070;2022-07-23T13:29:03;98364.72;;;28.18;47.71
70445;BME280;57902;49.638;11.070;2022-07-23T13:31:35;98358.38;;;28.37;47.45
70445;BME280;57902;49.638;11.070;2022-07-23T13:34:04;98357.16;;;28.57;46.18
70445;BME280;57902;49.638;11.070;2022-07-23T13:36:30;98355.03;;;28.61;45.95
70445;BME280;57902;49.638;11.070;2022-07-23T13:38:57;98359.69;;;28.67;46.17
70445;BME280;57902;49.638;11.070;2022-07-23T13:41:25;98355.25;;;28.76;45.15
70445;BME280;57902;49.638;11.070;2022-07-23T13:43:51;98369.06;;;28.88;44.81
70445;BME280;57902;49.638;11.070;2022-07-23T13:46:18;98356.78;;;28.78;45.25